createdAt,value
2022-07-29T00:03:19.636Z,19.46
2022-07-29T00:08:21.174Z,19.33
2022-07-29T00:13:32.201Z,19.28
2022-07-29T00:18:34.233Z,19.17
2022-07-29T00:23:36.897Z,19.18
2022-07-29T00:28:38.500Z,19.29
2022-07-29T00:33:39.996Z,19.24
2022-07-29T00:38:41.430Z,19.15
2022-07-29T00:43:43.482Z,19.09
2022-07-29T00:48:44.951Z,19.17
2022-07-29T00:53:46.450Z,19.28
2022-07-29T00:58:49.109Z,19.32
2022-07-29T01:03:51.042Z,19.41
2022-07-29T01:08:52.725Z,19.48
2022-07-29T01:13:54.518Z,19.52
2022-07-29T01:19:08.526Z,19.53
2022-07-29T01:24:31.143Z,19.57
2022-07-29T01:29:49.925Z,19.59
2022-07-29T01:34:56.722Z,19.62
2022-07-29T01:40:01.018Z,19.63
2022-07-29T01:45:07.049Z,19.52
2022-07-29T01:50:13.352Z,19.35
2022-07-29T01:55:17.447Z,19.26
2022-07-29T02:00:19.778Z,19.06
2022-07-29T02:05:23.418Z,18.95
2022-07-29T02:10:27.891Z,19.08
2022-07-29T02:15:32.764Z,18.89
2022-07-29T02:20:34.761Z,18.88
2022-07-29T02:25:38.092Z,18.62
2022-07-29T02:30:42.786Z,18.55
2022-07-29T02:35:45.923Z,18.39
2022-07-29T02:40:47.865Z,18.33
2022-07-29T02:45:52.608Z,18.09
2022-07-29T02:51:06.084Z,17.99
2022-07-29T02:56:12.116Z,17.92
2022-07-29T03:01:21.913Z,18.10
2022-07-29T03:06:37.646Z,18.10
2022-07-29T03:11:50.075Z,18.08
2022-07-29T03:16:53.062Z,18.06
2022-07-29T03:21:57.619Z,18.03
2022-07-29T03:26:59.495Z,18.07
2022-07-29T03:32:07.986Z,17.99
2022-07-29T03:37:10.266Z,17.94
2022-07-29T03:42:14.978Z,17.89
2022-07-29T03:47:19.319Z,17.95
2022-07-29T03:52:23.537Z,18.01
2022-07-29T03:57:26.171Z,18.13
2022-07-29T04:02:30.664Z,18.29
2022-07-29T04:07:35.349Z,18.35
2022-07-29T04:12:36.951Z,18.40
2022-07-29T04:17:38.614Z,18.42
2022-07-29T04:22:41.072Z,18.49
2022-07-29T04:27:42.526Z,18.52
2022-07-29T04:32:44.200Z,18.54
2022-07-29T04:37:45.649Z,18.61
2022-07-29T04:42:47.832Z,18.64
2022-07-29T04:47:50.023Z,18.68
2022-07-29T04:52:51.988Z,18.77
2022-07-29T04:57:53.406Z,18.90
2022-07-29T05:02:58.113Z,18.93
2022-07-29T05:08:02.669Z,18.97
2022-07-29T05:13:05.488Z,19.06
2022-07-29T05:18:10.109Z,19.09
2022-07-29T05:23:11.811Z,19.24
2022-07-29T05:28:13.593Z,19.49
2022-07-29T05:33:34.286Z,19.60
2022-07-29T05:38:38.404Z,19.84
2022-07-29T05:43:40.119Z,19.99
2022-07-29T05:48:41.850Z,20.11
2022-07-29T05:53:43.682Z,20.15
2022-07-29T05:58:45.456Z,20.17
2022-07-29T06:03:49.575Z,20.20
2022-07-29T06:08:51.427Z,20.29
2022-07-29T06:13:53.205Z,20.63
2022-07-29T06:18:58.136Z,20.78
2022-07-29T06:24:05.724Z,20.88
2022-07-29T06:29:27.020Z,20.60
2022-07-29T06:34:32.973Z,20.63
2022-07-29T06:39:47.766Z,20.55
2022-07-29T06:44:49.615Z,20.33
2022-07-29T06:49:51.499Z,20.26
2022-07-29T06:54:53.696Z,20.16
2022-07-29T06:59:58.478Z,20.02
2022-07-29T07:05:07.076Z,20.02
2022-07-29T07:10:11.348Z,20.13
2022-07-29T07:15:38.940Z,20.29
2022-07-29T07:20:51.474Z,20.63
2022-07-29T07:25:57.364Z,20.63
2022-07-29T07:31:27.749Z,20.81
2022-07-29T07:36:42.686Z,20.80
2022-07-29T07:41:45.586Z,20.83
2022-07-29T07:47:12.502Z,20.88
2022-07-29T07:52:16.369Z,20.91
2022-07-29T07:57:18.121Z,20.71
2022-07-29T08:02:19.701Z,20.65
2022-07-29T08:08:25.509Z,20.57
2022-07-29T08:13:28.166Z,20.57
2022-07-29T08:29:52.517Z,20.84
2022-07-29T08:40:11.819Z,21.19
2022-07-29T08:50:46.406Z,21.58
2022-07-29T08:55:49.976Z,21.80
2022-07-29T09:00:56.433Z,22.12
2022-07-29T09:06:00.533Z,22.17
2022-07-29T09:11:03.887Z,22.02
2022-07-29T09:16:09.401Z,22.03
2022-07-29T09:21:16.253Z,21.71
2022-07-29T09:26:18.087Z,21.49
2022-07-29T09:31:34.543Z,21.17
2022-07-29T09:36:45.018Z,21.30
2022-07-29T09:41:47.899Z,22.12
2022-07-29T09:47:02.733Z,23.39
2022-07-29T10:36:01.746Z,25.54
2022-07-29T10:41:22.249Z,26.03
2022-07-29T10:47:20.772Z,27.42
2022-07-29T10:58:25.177Z,36.58
2022-07-29T11:15:31.680Z,37.62
2022-07-29T13:56:35.559Z,34.41
2022-07-29T14:12:15.173Z,32.82
2022-07-29T14:53:12.419Z,31.83
2022-07-29T14:58:37.752Z,31.57
2022-07-29T15:03:57.998Z,31.42
2022-07-29T15:14:39.617Z,31.32
2022-07-29T15:19:44.927Z,31.23
2022-07-29T15:24:46.760Z,30.81
2022-07-29T15:29:48.464Z,30.50
2022-07-29T15:34:50.056Z,30.49
2022-07-29T15:39:51.561Z,30.76
2022-07-29T15:44:53.195Z,30.71
2022-07-29T15:49:57.429Z,29.93
2022-07-29T15:54:59.150Z,29.81
2022-07-29T16:00:00.718Z,29.27
2022-07-29T16:05:02.346Z,29.18
2022-07-29T16:10:04.332Z,28.80
2022-07-29T16:15:09.740Z,28.71
2022-07-29T16:20:13.793Z,28.46
2022-07-29T16:25:15.796Z,28.15
2022-07-29T16:30:17.520Z,27.93
2022-07-29T16:35:19.167Z,27.88
2022-07-29T16:40:22.171Z,27.51
2022-07-29T16:45:23.858Z,27.37
2022-07-29T16:50:37.032Z,27.32
2022-07-29T16:55:42.653Z,27.24
2022-07-29T17:17:03.441Z,27.51
2022-07-29T17:22:15.871Z,27.72
2022-07-29T17:27:29.102Z,27.53
2022-07-29T17:32:31.262Z,27.47
2022-07-29T17:37:35.779Z,27.67
2022-07-29T17:42:37.533Z,27.46
2022-07-29T17:47:39.083Z,27.64
2022-07-29T17:52:46.008Z,27.50
2022-07-29T17:57:51.698Z,27.41
2022-07-29T18:02:55.452Z,27.28
2022-07-29T18:07:57.345Z,26.94
2022-07-29T18:46:58.256Z,25.50
2022-07-29T18:52:00.016Z,25.31
2022-07-29T18:57:01.772Z,25.18
2022-07-29T19:02:23.426Z,25.05
2022-07-29T19:07:25.040Z,24.57
2022-07-29T19:12:26.555Z,24.47
2022-07-29T19:17:28.109Z,24.33
2022-07-29T19:22:29.638Z,24.18
2022-07-29T19:27:31.258Z,24.00
2022-07-29T19:32:32.742Z,23.84
2022-07-29T19:37:34.247Z,23.77
2022-07-29T19:42:35.718Z,23.61
2022-07-29T19:47:37.272Z,23.52
2022-07-29T19:52:39.029Z,23.35
2022-07-29T19:57:41.970Z,23.28
2022-07-29T20:02:43.600Z,23.23
2022-07-29T20:07:45.439Z,23.11
2022-07-29T20:12:46.862Z,22.90
2022-07-29T20:17:56.912Z,22.72
2022-07-29T20:22:58.745Z,22.58
2022-07-29T20:28:00.420Z,22.28
2022-07-29T20:33:01.962Z,22.02
2022-07-29T20:38:03.525Z,21.84
2022-07-29T20:43:04.921Z,21.72
2022-07-29T20:48:06.662Z,21.58
2022-07-29T20:53:09.956Z,21.43
2022-07-29T20:58:11.512Z,21.49
2022-07-29T21:03:13.131Z,21.27
2022-07-29T21:08:14.859Z,21.28
2022-07-29T21:13:16.418Z,21.21
2022-07-29T21:18:18.861Z,21.18
2022-07-29T21:23:20.678Z,21.11
2022-07-29T21:28:22.706Z,21.12
2022-07-29T21:33:25.159Z,21.07
2022-07-29T21:38:27.084Z,21.18
2022-07-29T21:43:28.762Z,21.09
2022-07-29T21:48:30.480Z,21.12
2022-07-29T21:53:31.964Z,21.16
2022-07-29T22:16:48.328Z,20.95
2022-07-29T22:22:00.997Z,20.89
2022-07-29T22:27:15.234Z,20.85
2022-07-29T22:32:31.562Z,20.79
2022-07-29T22:37:37.290Z,20.67
2022-07-29T22:43:03.214Z,20.60
2022-07-29T23:00:00.830Z,20.15
2022-07-29T23:05:47.770Z,20.00
2022-07-29T23:16:37.628Z,19.63
2022-07-29T23:21:48.140Z,19.53
2022-07-29T23:27:34.154Z,19.43
2022-07-29T23:33:00.821Z,19.18
2022-07-29T23:44:18.819Z,19.02
2022-07-29T23:49:41.089Z,18.86
